Portada
METAR-TAF:

METAR-TAF

Aeroports :

Castres, França

latitud: 43-33-25N, longitud: 2-17-21E, altitud: 239 m

Observació

L'informe es va fer fa 35 minuts, a les 11:30 UTC
Vent 9 kt del Oest
Temperatura 5°C
Humitat 93%
Pressió 1001 hPa
Visibilitat 10 km o més
Cel cobert a una alçada de 1200 ft
pluja

METAR: LFCK 141130Z AUTO 28009KT 9999 -RA OVC012 05/04 Q1001 BECMG SCT014 BKN020

Hora: 13:05 (12:05 UTC)

Pronòstic

L'informe es va fer fa 1 hora i 5 minuts, a les 11:00 UTC
Pronòstic vàlid del 14 a les 12 UTC al 14 a les 21 UTC
Vent 2 kt amb direcció variable
Visibilitat 10 km o més
Cel ennuvolat a una alçada de 1700 ft
Temporalment
l' 14 a les 12 UTC al 14 a les 13 UTC
Cel ennuvolat a una alçada de 1100 ft
pluja
Probabilitat 40% :
Temporalment
l' 14 a les 16 UTC al 14 a les 18 UTC
Núvols disperses a una alçada de 5000 ft, Cumulus congestus.

TAF: LFCK 141100Z 1412/1421 VRB02KT 9999 BKN017 TEMPO 1412/1413 -RA BKN011 PROB40 TEMPO 1416/1418 SCT050TCU

Observacions i pronòstics meteorològics de més de 4000 aeroports (METAR i TAF).

Les estacions disponibles són els punts grocs i vermells al mapa.

Posi el ratolí al punt desitjat per veure el nom de l'estació.

Feu clic per veure les observacions i els pronòstics meteorològics.

Per canviar el mapa: feu clic els botons verds amb una creu de color negre per apropar; al botó verd amb un guió per allunyar la imatge; o en les fletxes verdes per a mapes adjacents.


METAR-TAF: